Time;durP1;ratioP1;P1;durP2;ratioP2;P2;SDS_P1;SDS_P2;PMS_P1;PMS_P2;Temp;Humidity;BMP_temperature;BMP_pressure;BME280_temperature;BME280_humidity;BME280_pressure;Samples;Min_cycle;Max_cycle;Signal;HPM_P1;HPM_P2
2022/06/28 00:00:34;;;;;;;5.88;3.80;;;;;;;25.32;49.91;100216.75;4958298;29;20054;-79
2022/06/28 00:03:04;;;;;;;6.32;3.35;;;;;;;25.43;48.68;100225.50;4958121;29;20047;-78
2022/06/28 00:05:33;;;;;;;7.80;3.50;;;;;;;25.40;48.88;100229.47;4958781;29;20052;-79
2022/06/28 00:08:01;;;;;;;5.57;3.70;;;;;;;25.22;49.63;100237.16;4958166;29;20116;-78
2022/06/28 00:10:29;;;;;;;5.68;3.40;;;;;;;25.16;49.83;100236.03;4958023;29;20133;-79
2022/06/28 00:12:59;;;;;;;8.15;3.63;;;;;;;25.27;49.06;100237.44;4957975;29;20043;-78
2022/06/28 00:18:14;;;;;;;6.07;3.38;;;;;;;25.19;49.37;100241.13;4957968;29;20047;-78
2022/06/28 00:20:43;;;;;;;6.60;3.00;;;;;;;25.29;48.95;100235.41;4957904;29;20413;-79
2022/06/28 00:23:11;;;;;;;6.00;3.70;;;;;;;25.29;50.07;100228.06;4957346;29;20580;-77
2022/06/28 00:25:39;;;;;;;6.18;3.47;;;;;;;25.20;50.16;100229.19;4958271;29;20129;-79
2022/06/28 00:28:07;;;;;;;6.15;3.88;;;;;;;25.25;49.74;100217.69;4957651;29;20054;-81
2022/06/28 00:30:35;;;;;;;6.30;3.42;;;;;;;25.20;49.71;100231.91;4958250;29;20098;-81
2022/06/28 00:33:04;;;;;;;5.15;3.53;;;;;;;25.05;50.34;100229.16;4957380;29;20047;-78
2022/06/28 00:35:33;;;;;;;6.20;3.30;;;;;;;25.06;49.45;100230.84;4940605;29;20118;-78
2022/06/28 00:38:01;;;;;;;5.57;3.05;;;;;;;25.10;49.86;100234.91;4957708;29;20457;-79
2022/06/28 00:40:30;;;;;;;6.60;3.47;;;;;;;25.06;49.88;100235.44;4957776;29;20043;-78
2022/06/28 00:42:58;;;;;;;6.32;3.60;;;;;;;25.03;50.35;100241.28;4957851;29;20054;-78
2022/06/28 00:45:27;;;;;;;5.85;3.70;;;;;;;24.99;50.19;100235.31;4957358;29;20043;-78
2022/06/28 00:47:56;;;;;;;5.80;3.63;;;;;;;25.45;48.94;100239.81;4956397;28;20677;-78
2022/06/28 00:50:25;;;;;;;4.55;3.28;;;;;;;25.19;49.80;100234.78;4957009;29;20050;-80
2022/06/28 00:53:03;;;;;;;3.90;3.03;;;;;;;25.15;49.56;100237.06;4957351;29;20078;-79
2022/06/28 00:55:31;;;;;;;5.28;3.55;;;;;;;24.99;50.24;100240.75;4957524;29;20071;-80
2022/06/28 00:58:00;;;;;;;6.32;3.35;;;;;;;25.14;49.29;100242.72;4957232;29;20062;-80
2022/06/28 01:00:29;;;;;;;7.50;3.95;;;;;;;24.98;49.79;100250.00;4957131;29;20047;-81
2022/06/28 01:02:57;;;;;;;6.05;3.42;;;;;;;24.94;50.51;100240.50;4957103;29;20043;-79
2022/06/28 01:05:25;;;;;;;5.80;3.50;;;;;;;24.89;50.53;100242.91;4957014;29;20054;-81
2022/06/28 01:07:54;;;;;;;6.97;3.58;;;;;;;24.76;50.75;100248.16;4957094;29;20047;-78
2022/06/28 01:10:26;;;;;;;5.75;3.45;;;;;;;24.81;50.05;100249.31;4956738;29;20047;-77
2022/06/28 01:12:54;;;;;;;7.35;3.42;;;;;;;24.79;50.64;100253.25;4957142;29;20515;-77
2022/06/28 01:15:22;;;;;;;4.63;3.13;;;;;;;24.86;49.84;100240.56;4956631;29;20143;-77
2022/06/28 01:17:50;;;;;;;7.75;3.72;;;;;;;24.79;50.51;100245.06;4957071;29;20102;-77
2022/06/28 01:20:19;;;;;;;6.78;3.97;;;;;;;24.74;50.54;100252.97;4956959;29;20468;-82
2022/06/28 01:22:48;;;;;;;9.48;3.90;;;;;;;24.83;50.34;100254.59;4956972;29;20047;-83
2022/06/28 01:25:17;;;;;;;7.20;3.78;;;;;;;24.63;51.40;100256.97;4956356;29;20453;-83
2022/06/28 01:27:46;;;;;;;6.40;3.83;;;;;;;24.56;51.51;100256.00;4957030;29;20053;-82
2022/06/28 01:30:15;;;;;;;7.75;4.18;;;;;;;24.50;52.13;100260.28;4956305;29;20043;-82
2022/06/28 01:32:43;;;;;;;5.63;3.75;;;;;;;24.41;52.78;100258.66;4956806;29;20131;-82
2022/06/28 01:35:12;;;;;;;5.78;3.42;;;;;;;24.46;52.80;100256.25;4956233;29;20054;-82
2022/06/28 01:37:40;;;;;;;6.40;3.80;;;;;;;24.71;52.04;100243.28;4956753;29;20058;-82
2022/06/28 01:40:10;;;;;;;6.45;3.70;;;;;;;24.46;53.06;100239.88;4956431;29;20066;-82
2022/06/28 01:42:39;;;;;;;5.45;3.75;;;;;;;24.64;53.00;100241.47;4956761;29;20420;-78
2022/06/28 01:45:09;;;;;;;6.45;3.97;;;;;;;24.43;53.45;100244.88;4956326;29;20043;-80
2022/06/28 01:47:42;;;;;;;5.82;3.75;;;;;;;24.52;52.39;100239.16;4956664;29;20047;-84
2022/06/28 01:50:10;;;;;;;6.78;4.10;;;;;;;24.65;52.82;100241.28;4956637;29;20043;-85
2022/06/28 01:52:41;;;;;;;7.20;4.22;;;;;;;24.48;53.67;100235.09;4956437;29;20122;-78
2022/06/28 01:55:11;;;;;;;7.07;4.00;;;;;;;24.54;54.03;100234.38;4955924;29;20051;-83
2022/06/28 01:57:40;;;;;;;9.80;4.55;;;;;;;24.28;55.02;100252.94;4956373;29;20196;-83
2022/06/28 02:00:10;;;;;;;5.47;4.25;;;;;;;24.50;54.96;100246.66;4955750;28;20047;-84
2022/06/28 02:02:38;;;;;;;8.60;4.63;;;;;;;24.26;55.86;100244.94;4956147;29;20047;-77
2022/06/28 02:05:07;;;;;;;6.07;3.75;;;;;;;24.11;56.49;100246.72;4956018;29;20085;-80
2022/06/28 02:07:35;;;;;;;5.43;3.80;;;;;;;23.97;57.72;100255.69;4956000;29;20075;-80
2022/06/28 02:10:04;;;;;;;7.82;4.38;;;;;;;23.90;57.95;100261.00;4955834;29;20057;-80
2022/06/28 02:12:34;;;;;;;5.85;4.18;;;;;;;23.83;58.51;100270.91;4955950;29;20067;-84
2022/06/28 02:15:02;;;;;;;5.65;4.20;;;;;;;23.78;58.75;100273.31;4956138;29;20043;-81
2022/06/28 02:17:30;;;;;;;6.15;4.15;;;;;;;23.85;58.93;100271.59;4955545;29;20117;-80
2022/06/28 02:19:59;;;;;;;6.75;4.00;;;;;;;23.82;58.99;100274.66;4955614;29;20082;-83
2022/06/28 02:22:27;;;;;;;6.35;4.30;;;;;;;24.06;58.59;100272.84;4955475;29;20062;-80
2022/06/28 02:24:55;;;;;;;8.00;4.63;;;;;;;24.03;58.79;100273.19;4955873;29;20063;-82
2022/06/28 02:27:23;;;;;;;7.70;4.55;;;;;;;23.66;60.03;100272.88;4955326;29;20102;-82
2022/06/28 02:29:53;;;;;;;7.72;4.25;;;;;;;23.64;60.59;100266.75;4955579;29;20050;-81
2022/06/28 02:32:21;;;;;;;7.80;4.55;;;;;;;23.58;61.01;100258.41;4955150;29;20043;-79
2022/06/28 02:40:24;;;;;;;8.23;4.53;;;;;;;23.38;62.58;100239.75;4955463;29;20397;-81
2022/06/28 02:42:53;;;;;;;7.20;4.53;;;;;;;23.33;63.21;100246.72;4955426;29;20043;-82
2022/06/28 02:45:25;;;;;;;6.10;4.72;;;;;;;23.41;62.78;100255.72;4955107;29;20043;-82
2022/06/28 02:47:54;;;;;;;7.25;4.45;;;;;;;23.42;63.07;100265.59;4955355;29;20054;-82
2022/06/28 02:50:22;;;;;;;8.20;4.63;;;;;;;23.36;63.65;100274.47;4955090;29;20047;-82
2022/06/28 02:52:50;;;;;;;7.78;4.80;;;;;;;23.38;63.44;100264.25;4955221;29;20134;-81
2022/06/28 02:55:19;;;;;;;5.65;4.25;;;;;;;23.40;63.29;100270.34;4954813;29;20572;-83
2022/06/28 02:57:47;;;;;;;8.23;4.45;;;;;;;23.36;63.80;100262.72;4955116;29;20043;-78
2022/06/28 03:00:17;;;;;;;7.70;4.40;;;;;;;23.39;63.56;100263.22;4954728;29;20477;-78
2022/06/28 03:02:48;;;;;;;7.65;4.70;;;;;;;23.69;62.13;100264.34;4955139;29;20090;-84
2022/06/28 03:05:18;;;;;;;6.65;4.70;;;;;;;23.70;61.55;100257.00;4954757;29;20480;-84
2022/06/28 03:07:46;;;;;;;7.22;4.60;;;;;;;23.52;62.85;100261.81;4955023;29;20078;-85
2022/06/28 03:10:18;;;;;;;7.25;4.03;;;;;;;23.63;61.95;100266.91;4954831;29;20050;-86
2022/06/28 03:12:46;;;;;;;7.68;4.85;;;;;;;23.67;62.08;100268.25;4954608;29;20043;-87
2022/06/28 03:15:14;;;;;;;7.32;4.35;;;;;;;23.55;62.60;100267.78;4954695;29;20043;-86
2022/06/28 03:17:50;;;;;;;6.35;4.47;;;;;;;23.45;62.91;100271.69;4955313;29;20043;-86
2022/06/28 03:20:18;;;;;;;8.55;4.80;;;;;;;23.48;62.99;100265.91;4954623;29;20078;-80
2022/06/28 03:22:46;;;;;;;7.90;4.43;;;;;;;23.54;62.97;100260.59;4955067;29;20051;-81
2022/06/28 03:25:14;;;;;;;7.45;4.28;;;;;;;23.72;62.17;100268.56;4954818;29;20437;-81
2022/06/28 03:27:42;;;;;;;7.13;4.47;;;;;;;23.96;60.89;100268.47;4954867;29;20075;-80
2022/06/28 03:30:13;;;;;;;7.80;4.72;;;;;;;24.07;60.66;100282.72;4954820;29;20553;-85
2022/06/28 03:32:41;;;;;;;9.35;4.43;;;;;;;24.23;60.43;100290.81;4954509;29;20563;-82
2022/06/28 03:35:11;;;;;;;8.73;4.47;;;;;;;24.22;60.37;100297.25;4954722;29;20776;-78
2022/06/28 03:37:40;;;;;;;7.18;4.55;;;;;;;24.70;58.38;100304.28;4954679;29;20097;-80
2022/06/28 03:40:09;;;;;;;7.18;4.78;;;;;;;25.20;56.79;100315.66;4954875;29;20143;-79
2022/06/28 03:42:37;;;;;;;6.35;4.38;;;;;;;25.73;55.17;100330.16;4954378;29;20055;-79
2022/06/28 03:45:07;;;;;;;6.45;4.57;;;;;;;26.09;53.64;100336.53;4954611;29;20485;-79
2022/06/28 03:47:35;;;;;;;7.38;4.80;;;;;;;25.95;54.14;100351.03;4954701;28;20055;-84
2022/06/28 03:50:03;;;;;;;6.38;4.40;;;;;;;25.96;53.64;100360.94;4935763;29;20074;-84
2022/06/28 03:52:33;;;;;;;9.55;4.78;;;;;;;26.03;53.39;100374.69;4935368;29;20056;-76
2022/06/28 03:55:03;;;;;;;6.38;4.28;;;;;;;25.49;54.32;100380.41;4937460;28;20123;-76
2022/06/28 03:57:31;;;;;;;7.35;4.05;;;;;;;25.49;54.66;100388.59;4973902;28;20141;-80
2022/06/28 04:00:01;;;;;;;8.45;4.50;;;;;;;25.57;54.27;100394.78;4973841;28;20054;-87
2022/06/28 04:02:29;;;;;;;10.15;4.22;;;;;;;25.77;53.20;100386.09;4974230;28;20050;-86
2022/06/28 04:04:57;;;;;;;7.93;4.30;;;;;;;25.49;54.09;100383.13;4962202;28;20047;-84
2022/06/28 04:07:25;;;;;;;8.68;4.22;;;;;;;25.64;53.51;100376.63;4935511;29;20044;-83
2022/06/28 04:09:55;;;;;;;5.53;4.07;;;;;;;26.23;52.07;100376.66;4935584;29;20051;-80
2022/06/28 04:12:23;;;;;;;6.72;4.28;;;;;;;26.38;51.24;100378.56;4918214;29;20054;-78
2022/06/28 04:14:51;;;;;;;11.55;4.57;;;;;;;27.04;49.57;100388.38;4935524;29;20504;-79
2022/06/28 04:17:19;;;;;;;11.25;4.60;;;;;;;27.33;48.92;100387.38;4935363;29;20128;-82
2022/06/28 04:19:47;;;;;;;7.97;4.20;;;;;;;27.55;47.37;100370.88;4935532;29;20043;-82
2022/06/28 04:22:15;;;;;;;7.80;4.22;;;;;;;28.07;46.91;100375.00;4935470;29;20062;-77
2022/06/28 04:24:44;;;;;;;8.85;4.80;;;;;;;28.06;46.88;100367.84;4940533;29;20052;-81
2022/06/28 04:27:13;;;;;;;8.23;4.78;;;;;;;27.58;47.60;100368.56;4949426;29;20095;-82
2022/06/28 04:29:41;;;;;;;7.30;3.90;;;;;;;27.85;47.76;100366.03;4925272;29;20505;-81
2022/06/28 04:32:10;;;;;;;7.93;4.13;;;;;;;28.22;46.84;100375.72;4938988;29;20493;-76
2022/06/28 04:34:38;;;;;;;8.45;4.10;;;;;;;28.55;45.37;100383.25;4938506;29;20405;-82
2022/06/28 04:37:06;;;;;;;7.13;3.90;;;;;;;28.95;44.11;100379.63;4938766;29;20047;-78
2022/06/28 04:39:35;;;;;;;7.72;3.97;;;;;;;29.72;42.42;100372.63;4938349;29;20512;-77
2022/06/28 04:42:05;;;;;;;7.82;3.88;;;;;;;30.23;41.53;100362.81;4946196;29;20047;-76
2022/06/28 04:44:34;;;;;;;7.53;4.15;;;;;;;30.83;39.85;100366.13;4938475;29;20048;-74
2022/06/28 04:47:03;;;;;;;9.93;4.22;;;;;;;31.12;38.34;100367.38;4938365;29;20087;-75
2022/06/28 04:49:31;;;;;;;8.95;4.03;;;;;;;31.57;38.33;100374.44;4938109;29;20409;-74
2022/06/28 04:51:59;;;;;;;8.45;4.13;;;;;;;31.94;37.58;100381.94;4938134;29;20047;-75
2022/06/28 04:54:28;;;;;;;9.07;3.88;;;;;;;32.17;37.04;100390.38;4940342;29;20067;-74
2022/06/28 04:56:56;;;;;;;6.70;3.60;;;;;;;32.79;35.84;100396.59;4938471;29;20047;-73
2022/06/28 04:59:24;;;;;;;12.13;3.63;;;;;;;33.22;35.21;100407.47;4937851;29;20055;-72
2022/06/28 05:01:54;;;;;;;7.57;3.20;;;;;;;31.60;36.46;100426.38;4938097;29;20505;-74
2022/06/28 05:04:22;;;;;;;7.55;3.63;;;;;;;31.05;37.81;100439.03;4937909;29;20213;-73
2022/06/28 05:06:50;;;;;;;8.02;3.22;;;;;;;27.69;44.67;100463.09;4938014;29;20054;-74
2022/06/28 05:09:19;;;;;;;5.80;3.30;;;;;;;27.23;46.20;100458.06;4938122;29;20071;-82
2022/06/28 05:12:02;;;;;;;7.75;3.40;;;;;;;26.76;47.06;100448.44;4938302;29;20131;-74
2022/06/28 05:14:31;;;;;;;7.35;3.90;;;;;;;26.92;46.53;100457.44;4937694;29;20127;-74
2022/06/28 05:17:01;;;;;;;8.80;3.80;;;;;;;27.01;46.47;100459.88;4938100;29;20482;-75
2022/06/28 05:19:31;;;;;;;5.45;3.70;;;;;;;27.14;46.04;100461.97;4937586;29;20127;-74
2022/06/28 05:22:00;;;;;;;7.50;3.50;;;;;;;27.18;46.13;100473.34;4937921;29;20055;-77
2022/06/28 05:24:28;;;;;;;5.60;3.38;;;;;;;27.25;45.74;100468.81;4937619;29;20055;-77
2022/06/28 05:26:56;;;;;;;6.63;3.45;;;;;;;27.21;45.48;100468.31;4937910;29;20050;-77
2022/06/28 05:29:24;;;;;;;9.02;3.55;;;;;;;26.81;46.18;100489.75;4937301;29;20062;-77
2022/06/28 05:31:52;;;;;;;6.50;3.33;;;;;;;26.78;46.20;100509.31;4937475;29;20052;-77
2022/06/28 05:34:22;;;;;;;9.88;3.55;;;;;;;26.69;46.51;100509.59;4936898;29;20051;-79
2022/06/28 05:36:50;;;;;;;7.68;3.53;;;;;;;26.69;45.91;100518.66;4937800;29;20046;-77
2022/06/28 05:39:19;;;;;;;8.57;3.22;;;;;;;26.54;46.48;100512.38;4937685;29;20054;-77
2022/06/28 05:41:47;;;;;;;17.08;4.10;;;;;;;25.95;53.81;100536.88;4939749;29;20098;-76
2022/06/28 05:44:15;;;;;;;11.77;4.22;;;;;;;25.85;54.96;100511.69;4944817;29;20047;-74
2022/06/28 05:46:44;;;;;;;11.65;3.97;;;;;;;25.78;55.80;100514.34;4947378;29;20058;-75
2022/06/28 05:49:13;;;;;;;9.88;4.03;;;;;;;25.84;55.99;100532.69;4945034;29;20047;-74
2022/06/28 05:51:43;;;;;;;10.02;4.00;;;;;;;25.76;57.01;100531.91;4936877;29;20502;-73
2022/06/28 05:54:12;;;;;;;10.65;4.13;;;;;;;25.77;57.13;100530.88;4937321;29;20050;-73
2022/06/28 05:56:40;;;;;;;9.27;4.07;;;;;;;25.78;57.15;100521.69;4937114;29;20091;-77
2022/06/28 05:59:08;;;;;;;8.32;3.70;;;;;;;25.64;57.82;100494.09;4937295;29;20047;-76
2022/06/28 06:01:36;;;;;;;9.98;4.57;;;;;;;25.46;59.41;100477.16;4941821;29;20039;-74
2022/06/28 06:04:05;;;;;;;12.30;4.60;;;;;;;24.41;80.27;100427.69;4950173;29;20054;-79
2022/06/28 06:06:33;;;;;;;12.05;5.40;;;;;;;22.79;100.00;100413.19;4956085;29;20051;-77
2022/06/28 06:09:03;;;;;;;10.38;5.68;;;;;;;22.36;100.00;100397.09;4955981;29;20408;-77
2022/06/28 06:11:31;;;;;;;8.95;5.32;;;;;;;22.41;100.00;100348.56;4938517;29;20047;-77
2022/06/28 06:13:59;;;;;;;9.98;5.80;;;;;;;22.40;100.00;100325.13;4956031;29;20058;-78
2022/06/28 06:16:27;;;;;;;12.85;5.90;;;;;;;22.49;100.00;100318.69;4955741;29;20043;-79
2022/06/28 06:18:56;;;;;;;11.40;5.28;;;;;;;22.62;100.00;100297.28;4938789;29;20386;-77
2022/06/28 06:21:24;;;;;;;10.43;4.38;;;;;;;22.68;100.00;100295.72;4955738;29;20047;-80
2022/06/28 06:23:52;;;;;;;10.05;5.20;;;;;;;22.74;100.00;100290.47;4956650;28;20094;-78
2022/06/28 06:26:22;;;;;;;8.68;4.63;;;;;;;22.85;100.00;100311.91;4953383;28;20040;-78
2022/06/28 06:28:50;;;;;;;11.63;4.90;;;;;;;22.83;100.00;100335.69;4952933;29;20556;-76
2022/06/28 06:31:18;;;;;;;9.65;5.55;;;;;;;22.76;100.00;100356.41;4956150;29;20047;-77
2022/06/28 06:33:48;;;;;;;8.32;5.22;;;;;;;22.70;100.00;100367.97;4955307;29;20050;-77
2022/06/28 06:36:16;;;;;;;8.77;5.38;;;;;;;22.74;100.00;100369.31;4955420;29;20133;-76
2022/06/28 06:38:44;;;;;;;13.70;6.40;;;;;;;22.86;100.00;100356.28;4955186;29;20050;-78
2022/06/28 06:41:12;;;;;;;8.40;5.40;;;;;;;23.03;100.00;100340.81;4955676;29;20532;-78
2022/06/28 06:43:42;;;;;;;10.55;5.63;;;;;;;23.13;100.00;100363.25;4955170;29;20400;-80
2022/06/28 06:46:10;;;;;;;8.30;5.90;;;;;;;22.82;100.00;100374.78;4954934;28;20382;-81
2022/06/28 06:48:39;;;;;;;12.40;5.93;;;;;;;22.82;100.00;100353.03;4954994;29;20102;-77
2022/06/28 06:51:07;;;;;;;11.73;4.80;;;;;;;23.21;100.00;100374.16;4955333;29;20497;-83
2022/06/28 06:53:35;;;;;;;11.40;5.95;;;;;;;23.08;100.00;100369.22;4955237;29;20082;-80
2022/06/28 06:56:04;;;;;;;11.57;5.68;;;;;;;23.11;100.00;100374.31;4955529;29;20047;-81
2022/06/28 06:58:32;;;;;;;12.63;5.60;;;;;;;23.15;100.00;100377.53;4938125;29;20047;-80
2022/06/28 07:01:02;;;;;;;13.35;6.32;;;;;;;23.36;100.00;100361.56;4955275;29;20075;-81
2022/06/28 07:03:50;;;;;;;13.05;5.07;;;;;;;23.53;100.00;100350.63;4955382;29;20055;-80
2022/06/28 07:06:18;;;;;;;9.40;5.15;;;;;;;23.29;100.00;100363.25;4955038;29;20086;-80
2022/06/28 07:08:46;;;;;;;12.80;5.07;;;;;;;23.61;100.00;100362.38;4954981;29;20047;-79
2022/06/28 07:11:14;;;;;;;11.23;5.07;;;;;;;23.68;100.00;100332.59;4955314;29;20047;-78
2022/06/28 07:13:43;;;;;;;13.35;5.18;;;;;;;23.74;100.00;100311.97;4954780;29;20544;-78
2022/06/28 07:16:12;;;;;;;9.77;5.40;;;;;;;23.88;100.00;100305.78;4955339;29;20050;-79
2022/06/28 07:18:42;;;;;;;11.32;5.78;;;;;;;23.96;100.00;100281.25;4954993;29;20074;-79
2022/06/28 07:21:11;;;;;;;11.70;6.15;;;;;;;24.10;100.00;100269.56;4955178;29;20464;-79
2022/06/28 07:23:40;;;;;;;14.32;5.85;;;;;;;24.13;100.00;100276.56;4954414;29;20107;-79
2022/06/28 07:26:09;;;;;;;10.82;5.93;;;;;;;24.18;100.00;100285.03;4955103;29;20070;-79
2022/06/28 07:28:37;;;;;;;9.40;5.72;;;;;;;24.05;100.00;100310.13;4954695;29;20075;-80
2022/06/28 07:31:05;;;;;;;11.80;4.65;;;;;;;24.09;100.00;100302.44;4955059;29;20044;-79
2022/06/28 07:33:34;;;;;;;12.57;5.60;;;;;;;24.35;100.00;100300.28;4954650;29;20110;-79
2022/06/28 07:36:03;;;;;;;11.13;5.00;;;;;;;24.45;100.00;100316.41;4955316;29;20404;-84
2022/06/28 07:38:31;;;;;;;9.05;5.47;;;;;;;24.44;100.00;100317.44;4954567;29;20043;-80
2022/06/28 07:40:59;;;;;;;13.25;6.15;;;;;;;24.56;100.00;100316.00;4954828;29;20437;-79
2022/06/28 07:43:27;;;;;;;11.25;5.00;;;;;;;24.74;100.00;100318.41;4955069;29;20134;-79
2022/06/28 07:45:56;;;;;;;11.32;6.25;;;;;;;24.89;100.00;100316.56;4954929;29;20047;-79
2022/06/28 07:48:24;;;;;;;8.52;4.78;;;;;;;25.06;100.00;100350.91;4954696;29;20488;-79
2022/06/28 07:53:39;;;;;;;9.82;4.88;;;;;;;25.06;100.00;100371.91;4955025;29;20498;-78
2022/06/28 07:56:07;;;;;;;15.32;5.03;;;;;;;25.12;100.00;100354.81;4954718;29;20520;-78
2022/06/28 07:58:39;;;;;;;11.80;4.60;;;;;;;25.02;100.00;100376.88;4957335;28;20047;-79
2022/06/28 08:01:08;;;;;;;12.75;4.47;;;;;;;24.70;100.00;100382.53;4958726;29;20067;-79
2022/06/28 08:03:36;;;;;;;11.45;4.97;;;;;;;24.65;100.00;100387.69;4958544;29;20432;-79
2022/06/28 08:06:06;;;;;;;8.35;4.40;;;;;;;24.55;100.00;100386.03;4958555;29;20047;-79
2022/06/28 08:08:34;;;;;;;10.70;5.13;;;;;;;24.72;100.00;100394.13;4958561;29;20573;-79
2022/06/28 08:11:02;;;;;;;12.77;5.40;;;;;;;24.68;100.00;100401.81;4958642;29;20415;-79
2022/06/28 08:13:31;;;;;;;9.90;5.18;;;;;;;24.81;100.00;100399.34;4958197;29;20515;-80
2022/06/28 08:15:59;;;;;;;9.15;5.30;;;;;;;24.81;100.00;100395.78;4941717;29;20403;-79
2022/06/28 08:18:27;;;;;;;8.57;4.85;;;;;;;24.81;100.00;100399.34;4958342;29;20075;-78
2022/06/28 08:20:55;;;;;;;8.75;4.60;;;;;;;24.88;100.00;100401.34;4958662;29;20078;-79
2022/06/28 08:23:25;;;;;;;9.68;4.35;;;;;;;24.86;100.00;100409.69;4958297;29;20049;-79
2022/06/28 08:25:53;;;;;;;9.52;4.65;;;;;;;24.89;100.00;100398.41;4958345;29;20075;-79
2022/06/28 08:28:21;;;;;;;9.75;4.65;;;;;;;24.99;100.00;100399.03;4958550;29;20039;-79
2022/06/28 08:30:49;;;;;;;9.52;4.20;;;;;;;25.02;100.00;100401.44;4940669;29;20047;-79
2022/06/28 08:33:18;;;;;;;11.20;4.65;;;;;;;24.98;100.00;100407.41;4958176;29;20492;-79
2022/06/28 08:35:46;;;;;;;10.23;4.47;;;;;;;25.07;100.00;100407.19;4958250;29;20141;-80
2022/06/28 08:38:14;;;;;;;10.20;4.15;;;;;;;25.04;100.00;100407.56;4958145;29;20146;-79
2022/06/28 08:40:45;;;;;;;9.57;4.80;;;;;;;24.98;100.00;100412.84;4958191;29;20045;-80
2022/06/28 08:43:13;;;;;;;11.07;4.38;;;;;;;25.04;100.00;100404.84;4957981;29;20409;-79
2022/06/28 08:45:44;;;;;;;11.55;4.65;;;;;;;25.06;100.00;100410.94;4957660;29;20043;-79
2022/06/28 08:48:18;;;;;;;9.00;4.57;;;;;;;24.98;100.00;100419.16;4957834;29;20073;-79
2022/06/28 08:50:52;;;;;;;9.10;4.60;;;;;;;25.02;100.00;100423.28;4957720;29;20082;-79
2022/06/28 08:53:21;;;;;;;11.13;4.63;;;;;;;24.95;100.00;100425.00;4940944;29;20047;-79
2022/06/28 08:55:52;;;;;;;9.02;4.55;;;;;;;25.13;100.00;100421.16;4940451;29;20401;-79
2022/06/28 08:58:20;;;;;;;9.70;4.50;;;;;;;24.96;100.00;100426.69;4957844;29;20118;-79
2022/06/28 09:00:49;;;;;;;9.57;3.50;;;;;;;24.96;100.00;100437.59;4957667;29;20394;-78
2022/06/28 09:03:18;;;;;;;8.18;4.15;;;;;;;25.25;100.00;100442.34;4940275;29;20051;-78
2022/06/28 09:05:47;;;;;;;8.63;3.60;;;;;;;25.22;100.00;100439.16;4940377;29;20066;-79
2022/06/28 09:08:17;;;;;;;6.40;3.17;;;;;;;25.19;100.00;100436.78;4940102;29;20130;-79
2022/06/28 09:10:45;;;;;;;8.13;2.95;;;;;;;25.04;100.00;100448.50;4939514;29;20047;-78
2022/06/28 09:13:20;;;;;;;7.15;2.45;;;;;;;25.45;100.00;100448.16;4957301;29;20075;-78
2022/06/28 09:15:52;;;;;;;5.53;3.15;;;;;;;25.46;100.00;100455.31;4957183;29;20050;-78
2022/06/28 09:18:22;;;;;;;5.85;3.00;;;;;;;25.55;100.00;100448.75;4957377;29;20051;-80
2022/06/28 09:20:55;;;;;;;7.85;3.78;;;;;;;25.54;100.00;100443.47;4957247;29;20543;-79
2022/06/28 09:23:26;;;;;;;7.28;3.75;;;;;;;25.58;100.00;100442.94;4957252;29;20047;-79
2022/06/28 09:25:56;;;;;;;6.97;3.38;;;;;;;25.89;100.00;100440.09;4957471;29;20074;-79
2022/06/28 09:28:30;;;;;;;7.78;3.47;;;;;;;25.95;100.00;100443.94;4957488;29;20047;-79
2022/06/28 09:31:22;;;;;;;7.82;3.53;;;;;;;25.84;100.00;100430.75;4956877;29;20043;-78
2022/06/28 09:34:05;;;;;;;8.10;3.90;;;;;;;26.06;100.00;100429.00;4957100;29;20437;-79
2022/06/28 09:36:35;;;;;;;6.38;3.95;;;;;;;25.89;100.00;100433.78;4957152;29;20408;-78
2022/06/28 09:39:14;;;;;;;8.25;4.18;;;;;;;26.13;100.00;100441.69;4956915;29;20073;-79
2022/06/28 09:41:44;;;;;;;7.03;4.38;;;;;;;26.30;100.00;100434.16;4956795;29;20101;-77
2022/06/28 09:44:34;;;;;;;6.82;3.97;;;;;;;26.48;100.00;100442.00;4956908;29;20047;-78
2022/06/28 09:47:02;;;;;;;7.32;3.70;;;;;;;26.45;100.00;100443.25;4956666;29;20053;-79
2022/06/28 09:49:32;;;;;;;7.90;4.18;;;;;;;26.48;100.00;100451.06;4939831;29;20075;-79
2022/06/28 09:52:02;;;;;;;5.50;3.58;;;;;;;26.26;100.00;100446.53;4956699;29;20047;-79
2022/06/28 09:54:31;;;;;;;7.75;3.58;;;;;;;26.31;100.00;100445.94;4939585;29;20050;-78
2022/06/28 09:57:00;;;;;;;6.32;2.97;;;;;;;26.21;100.00;100449.81;4956997;29;20078;-79
2022/06/28 09:59:32;;;;;;;6.25;2.97;;;;;;;26.20;100.00;100452.75;4956741;29;20071;-79
2022/06/28 10:02:02;;;;;;;7.30;3.10;;;;;;;26.60;100.00;100450.56;4956563;29;20062;-77
2022/06/28 10:04:31;;;;;;;5.93;3.20;;;;;;;26.62;100.00;100441.09;4956543;29;20485;-79
2022/06/28 10:07:00;;;;;;;7.32;3.30;;;;;;;27.03;100.00;100454.25;4956564;29;20141;-79
2022/06/28 10:09:28;;;;;;;5.82;3.05;;;;;;;26.76;100.00;100453.94;4956328;29;20043;-76
2022/06/28 10:17:53;;;;;;;6.43;3.38;;;;;;;26.88;100.00;100457.00;4956560;29;20401;-78
2022/06/28 10:20:24;;;;;;;8.15;4.10;;;;;;;26.94;100.00;100449.91;4954279;28;20122;-79
2022/06/28 10:22:53;;;;;;;7.85;4.18;;;;;;;26.76;100.00;100448.44;4956030;29;20122;-77
2022/06/28 10:25:25;;;;;;;7.90;4.38;;;;;;;26.84;100.00;100444.75;4956472;29;20437;-78
2022/06/28 10:27:54;;;;;;;7.28;4.25;;;;;;;26.70;100.00;100442.91;4955938;29;20050;-79
2022/06/28 10:30:28;;;;;;;8.25;4.47;;;;;;;26.78;100.00;100440.91;4956276;29;20047;-78
2022/06/28 10:33:06;;;;;;;10.40;4.72;;;;;;;26.79;100.00;100436.25;4938987;29;20057;-78
2022/06/28 10:35:54;;;;;;;8.55;4.60;;;;;;;26.73;100.00;100437.03;4956186;29;20049;-78
2022/06/28 10:38:23;;;;;;;8.68;4.95;;;;;;;26.96;100.00;100428.66;4956101;29;20058;-78
2022/06/28 10:40:51;;;;;;;6.70;4.53;;;;;;;27.25;100.00;100425.84;4955658;29;20075;-78
2022/06/28 10:43:45;;;;;;;7.45;4.75;;;;;;;27.54;100.00;100423.97;4955917;29;20133;-78
2022/06/28 10:46:14;;;;;;;8.30;4.80;;;;;;;27.69;100.00;100432.13;4955866;29;20130;-78
2022/06/28 10:49:07;;;;;;;8.63;5.10;;;;;;;27.72;100.00;100418.88;4955773;29;20051;-78
2022/06/28 10:51:38;;;;;;;7.25;4.63;;;;;;;27.58;100.00;100419.78;4955780;29;20450;-78
2022/06/28 10:54:10;;;;;;;9.95;5.03;;;;;;;27.67;100.00;100418.63;4955710;29;20047;-78
2022/06/28 10:56:43;;;;;;;9.43;4.30;;;;;;;27.64;100.00;100408.03;4938259;29;20129;-77
2022/06/28 10:59:13;;;;;;;8.07;4.45;;;;;;;27.69;100.00;100411.03;4955220;29;20039;-79
2022/06/28 11:01:59;;;;;;;9.05;4.90;;;;;;;27.66;100.00;100405.97;4955820;29;20066;-78
2022/06/28 11:04:30;;;;;;;9.52;4.90;;;;;;;27.60;100.00;100403.97;4955610;29;20110;-77
2022/06/28 11:07:03;;;;;;;6.70;4.70;;;;;;;27.91;100.00;100398.97;4938200;29;20061;-79
2022/06/28 11:09:48;;;;;;;8.55;4.90;;;;;;;27.90;100.00;100405.53;4955701;29;20452;-78
2022/06/28 11:12:18;;;;;;;7.60;4.47;;;;;;;27.91;100.00;100409.94;4954566;29;20058;-77
2022/06/28 11:14:49;;;;;;;8.05;4.80;;;;;;;28.10;100.00;100404.78;4955693;29;20404;-78
2022/06/28 11:17:22;;;;;;;7.00;4.40;;;;;;;28.09;100.00;100400.34;4955568;29;20511;-78
2022/06/28 11:19:55;;;;;;;8.40;4.35;;;;;;;27.81;100.00;100398.50;4955279;29;20130;-79
2022/06/28 11:22:26;;;;;;;8.30;4.40;;;;;;;28.12;100.00;100391.72;4955411;29;20043;-79
2022/06/28 11:24:59;;;;;;;8.20;4.63;;;;;;;28.32;100.00;100384.47;4955469;29;20460;-79
2022/06/28 11:27:27;;;;;;;8.52;4.47;;;;;;;28.55;100.00;100396.97;4955623;29;20047;-79
2022/06/28 11:30:07;;;;;;;8.68;4.80;;;;;;;28.57;100.00;100372.91;4938094;29;20128;-79
2022/06/28 11:32:38;;;;;;;6.18;4.68;;;;;;;28.61;100.00;100379.72;4958175;28;20045;-79
2022/06/28 11:35:09;;;;;;;9.23;4.40;;;;;;;28.72;100.00;100374.44;4961599;28;20071;-79
2022/06/28 11:37:53;;;;;;;8.00;4.05;;;;;;;28.68;100.00;100375.09;4944518;29;20047;-79
2022/06/28 11:40:24;;;;;;;7.50;4.85;;;;;;;28.80;100.00;100373.41;4961544;28;20047;-79
2022/06/28 11:43:04;;;;;;;9.77;4.40;;;;;;;28.89;100.00;100363.97;4961916;29;20453;-79
2022/06/28 11:45:34;;;;;;;9.30;4.35;;;;;;;28.88;100.00;100365.00;4961784;29;20067;-79
2022/06/28 11:48:05;;;;;;;8.95;4.43;;;;;;;29.01;100.00;100362.28;4961333;28;20051;-79